sensor_id;sensor_type;location;lat;lon;timestamp;P1;durP1;ratioP1;P2;durP2;ratioP2
34765;SDS011;20984;43.508;1.504;2023-04-03T00:00:02;8.55;;;5.18;;
34765;SDS011;20984;43.508;1.504;2023-04-03T00:02:29;10.02;;;5.68;;
34765;SDS011;20984;43.508;1.504;2023-04-03T00:04:54;8.18;;;6.05;;
34765;SDS011;20984;43.508;1.504;2023-04-03T00:07:20;9.20;;;5.55;;
34765;SDS011;20984;43.508;1.504;2023-04-03T00:09:46;9.43;;;5.28;;
34765;SDS011;20984;43.508;1.504;2023-04-03T00:12:11;6.05;;;5.45;;
34765;SDS011;20984;43.508;1.504;2023-04-03T00:14:37;8.52;;;5.60;;
34765;SDS011;20984;43.508;1.504;2023-04-03T00:17:02;9.73;;;6.38;;
34765;SDS011;20984;43.508;1.504;2023-04-03T00:19:28;10.90;;;5.40;;
34765;SDS011;20984;43.508;1.504;2023-04-03T00:21:54;10.63;;;5.80;;
34765;SDS011;20984;43.508;1.504;2023-04-03T00:24:20;9.05;;;4.57;;
34765;SDS011;20984;43.508;1.504;2023-04-03T00:26:46;12.27;;;5.70;;
34765;SDS011;20984;43.508;1.504;2023-04-03T00:29:11;9.00;;;5.60;;
34765;SDS011;20984;43.508;1.504;2023-04-03T00:31:37;5.50;;;4.82;;
34765;SDS011;20984;43.508;1.504;2023-04-03T00:34:03;10.02;;;5.30;;
34765;SDS011;20984;43.508;1.504;2023-04-03T00:36:28;8.57;;;5.25;;
34765;SDS011;20984;43.508;1.504;2023-04-03T00:38:54;11.20;;;5.93;;
34765;SDS011;20984;43.508;1.504;2023-04-03T00:41:20;8.20;;;5.90;;
34765;SDS011;20984;43.508;1.504;2023-04-03T00:43:46;8.25;;;5.40;;
34765;SDS011;20984;43.508;1.504;2023-04-03T00:46:12;10.68;;;5.97;;
34765;SDS011;20984;43.508;1.504;2023-04-03T00:48:41;8.57;;;5.97;;
34765;SDS011;20984;43.508;1.504;2023-04-03T00:51:11;9.15;;;5.47;;
34765;SDS011;20984;43.508;1.504;2023-04-03T00:56:34;14.90;;;5.45;;
34765;SDS011;20984;43.508;1.504;2023-04-03T00:59:02;10.90;;;6.00;;
34765;SDS011;20984;43.508;1.504;2023-04-03T01:01:31;11.77;;;6.10;;
34765;SDS011;20984;43.508;1.504;2023-04-03T01:04:00;5.90;;;5.35;;
34765;SDS011;20984;43.508;1.504;2023-04-03T01:06:28;6.82;;;4.82;;
34765;SDS011;20984;43.508;1.504;2023-04-03T01:08:57;6.40;;;5.80;;
34765;SDS011;20984;43.508;1.504;2023-04-03T01:11:24;9.90;;;6.85;;
34765;SDS011;20984;43.508;1.504;2023-04-03T01:13:51;7.55;;;6.68;;
34765;SDS011;20984;43.508;1.504;2023-04-03T01:16:17;11.32;;;5.35;;
34765;SDS011;20984;43.508;1.504;2023-04-03T01:18:43;7.57;;;5.70;;
34765;SDS011;20984;43.508;1.504;2023-04-03T01:26:56;7.43;;;5.55;;
34765;SDS011;20984;43.508;1.504;2023-04-03T01:29:22;6.20;;;5.22;;
34765;SDS011;20984;43.508;1.504;2023-04-03T01:31:57;10.93;;;5.95;;
34765;SDS011;20984;43.508;1.504;2023-04-03T01:34:27;7.97;;;5.53;;
34765;SDS011;20984;43.508;1.504;2023-04-03T01:36:54;10.23;;;5.90;;
34765;SDS011;20984;43.508;1.504;2023-04-03T01:39:20;8.45;;;5.45;;
34765;SDS011;20984;43.508;1.504;2023-04-03T01:41:46;11.60;;;6.43;;
34765;SDS011;20984;43.508;1.504;2023-04-03T01:44:13;6.45;;;5.80;;
34765;SDS011;20984;43.508;1.504;2023-04-03T01:46:39;9.52;;;6.45;;
34765;SDS011;20984;43.508;1.504;2023-04-03T01:49:06;7.18;;;6.30;;
34765;SDS011;20984;43.508;1.504;2023-04-03T01:51:31;9.45;;;6.45;;
34765;SDS011;20984;43.508;1.504;2023-04-03T01:53:58;7.88;;;6.32;;
34765;SDS011;20984;43.508;1.504;2023-04-03T01:56:23;13.05;;;7.28;;
34765;SDS011;20984;43.508;1.504;2023-04-03T01:58:50;6.72;;;5.97;;
34765;SDS011;20984;43.508;1.504;2023-04-03T02:01:15;9.15;;;6.20;;
34765;SDS011;20984;43.508;1.504;2023-04-03T02:03:41;11.88;;;7.10;;
34765;SDS011;20984;43.508;1.504;2023-04-03T02:06:07;6.95;;;6.18;;
34765;SDS011;20984;43.508;1.504;2023-04-03T02:08:33;13.05;;;6.72;;
34765;SDS011;20984;43.508;1.504;2023-04-03T02:10:58;7.57;;;6.75;;
34765;SDS011;20984;43.508;1.504;2023-04-03T02:13:24;10.02;;;6.90;;
34765;SDS011;20984;43.508;1.504;2023-04-03T02:15:50;11.70;;;6.43;;
34765;SDS011;20984;43.508;1.504;2023-04-03T02:18:15;10.57;;;7.18;;
34765;SDS011;20984;43.508;1.504;2023-04-03T02:20:41;22.73;;;9.50;;
34765;SDS011;20984;43.508;1.504;2023-04-03T02:23:07;11.10;;;7.93;;
34765;SDS011;20984;43.508;1.504;2023-04-03T02:25:33;15.80;;;8.20;;
34765;SDS011;20984;43.508;1.504;2023-04-03T02:27:59;11.65;;;6.97;;
34765;SDS011;20984;43.508;1.504;2023-04-03T02:30:25;9.10;;;7.32;;
34765;SDS011;20984;43.508;1.504;2023-04-03T02:32:51;14.15;;;8.63;;
34765;SDS011;20984;43.508;1.504;2023-04-03T02:35:16;12.82;;;8.20;;
34765;SDS011;20984;43.508;1.504;2023-04-03T02:37:42;8.70;;;7.75;;
34765;SDS011;20984;43.508;1.504;2023-04-03T02:40:08;11.00;;;8.13;;
34765;SDS011;20984;43.508;1.504;2023-04-03T02:42:34;12.02;;;8.18;;
34765;SDS011;20984;43.508;1.504;2023-04-03T02:44:59;12.95;;;8.52;;
34765;SDS011;20984;43.508;1.504;2023-04-03T02:47:26;12.32;;;8.95;;
34765;SDS011;20984;43.508;1.504;2023-04-03T02:49:52;12.88;;;8.57;;
34765;SDS011;20984;43.508;1.504;2023-04-03T02:52:18;11.68;;;8.95;;
34765;SDS011;20984;43.508;1.504;2023-04-03T02:54:44;10.05;;;9.05;;
34765;SDS011;20984;43.508;1.504;2023-04-03T02:57:09;9.43;;;8.25;;
34765;SDS011;20984;43.508;1.504;2023-04-03T02:59:36;12.30;;;9.07;;
34765;SDS011;20984;43.508;1.504;2023-04-03T03:02:02;16.95;;;8.75;;
34765;SDS011;20984;43.508;1.504;2023-04-03T03:04:27;13.50;;;8.60;;
34765;SDS011;20984;43.508;1.504;2023-04-03T03:06:53;13.05;;;8.40;;
34765;SDS011;20984;43.508;1.504;2023-04-03T03:09:19;11.52;;;8.18;;
34765;SDS011;20984;43.508;1.504;2023-04-03T03:11:44;14.65;;;9.55;;
34765;SDS011;20984;43.508;1.504;2023-04-03T03:14:10;9.63;;;8.30;;
34765;SDS011;20984;43.508;1.504;2023-04-03T03:16:35;9.90;;;7.80;;
34765;SDS011;20984;43.508;1.504;2023-04-03T03:19:01;12.82;;;9.25;;
34765;SDS011;20984;43.508;1.504;2023-04-03T03:21:27;13.77;;;8.77;;
34765;SDS011;20984;43.508;1.504;2023-04-03T03:23:54;11.93;;;8.82;;
34765;SDS011;20984;43.508;1.504;2023-04-03T03:26:19;12.98;;;8.88;;
34765;SDS011;20984;43.508;1.504;2023-04-03T03:28:45;11.77;;;9.20;;
34765;SDS011;20984;43.508;1.504;2023-04-03T03:31:11;13.88;;;8.75;;
34765;SDS011;20984;43.508;1.504;2023-04-03T03:33:37;11.75;;;8.55;;
34765;SDS011;20984;43.508;1.504;2023-04-03T03:36:03;11.00;;;7.80;;
34765;SDS011;20984;43.508;1.504;2023-04-03T03:38:29;13.65;;;9.00;;
34765;SDS011;20984;43.508;1.504;2023-04-03T03:40:54;11.52;;;8.68;;
34765;SDS011;20984;43.508;1.504;2023-04-03T03:43:20;12.27;;;9.23;;
34765;SDS011;20984;43.508;1.504;2023-04-03T03:45:49;11.73;;;8.55;;
34765;SDS011;20984;43.508;1.504;2023-04-03T03:48:17;15.40;;;8.85;;
34765;SDS011;20984;43.508;1.504;2023-04-03T03:50:43;10.80;;;8.60;;
34765;SDS011;20984;43.508;1.504;2023-04-03T03:53:09;13.70;;;8.55;;
34765;SDS011;20984;43.508;1.504;2023-04-03T03:55:34;17.25;;;9.10;;
34765;SDS011;20984;43.508;1.504;2023-04-03T03:58:00;11.43;;;8.80;;
34765;SDS011;20984;43.508;1.504;2023-04-03T04:00:26;13.25;;;8.40;;
34765;SDS011;20984;43.508;1.504;2023-04-03T04:02:52;10.48;;;8.07;;
34765;SDS011;20984;43.508;1.504;2023-04-03T04:05:18;12.00;;;9.25;;
34765;SDS011;20984;43.508;1.504;2023-04-03T04:07:44;12.25;;;8.85;;
34765;SDS011;20984;43.508;1.504;2023-04-03T04:10:10;11.50;;;8.85;;
34765;SDS011;20984;43.508;1.504;2023-04-03T04:12:36;10.82;;;9.15;;
34765;SDS011;20984;43.508;1.504;2023-04-03T04:15:02;12.15;;;8.30;;
34765;SDS011;20984;43.508;1.504;2023-04-03T04:17:28;8.65;;;7.78;;
34765;SDS011;20984;43.508;1.504;2023-04-03T04:19:54;15.75;;;9.02;;
34765;SDS011;20984;43.508;1.504;2023-04-03T04:22:19;10.95;;;7.97;;
34765;SDS011;20984;43.508;1.504;2023-04-03T04:24:45;13.27;;;9.35;;
34765;SDS011;20984;43.508;1.504;2023-04-03T04:27:11;13.80;;;8.70;;
34765;SDS011;20984;43.508;1.504;2023-04-03T04:29:36;14.23;;;9.07;;
34765;SDS011;20984;43.508;1.504;2023-04-03T04:32:02;12.55;;;9.07;;
34765;SDS011;20984;43.508;1.504;2023-04-03T04:34:29;9.75;;;8.75;;
34765;SDS011;20984;43.508;1.504;2023-04-03T04:36:55;14.93;;;8.93;;
34765;SDS011;20984;43.508;1.504;2023-04-03T04:39:20;14.20;;;8.77;;
34765;SDS011;20984;43.508;1.504;2023-04-03T04:41:46;12.23;;;8.60;;
34765;SDS011;20984;43.508;1.504;2023-04-03T04:44:11;11.63;;;9.10;;
34765;SDS011;20984;43.508;1.504;2023-04-03T04:46:37;9.80;;;8.57;;
34765;SDS011;20984;43.508;1.504;2023-04-03T04:49:03;9.75;;;8.40;;
34765;SDS011;20984;43.508;1.504;2023-04-03T04:51:28;11.38;;;8.00;;
34765;SDS011;20984;43.508;1.504;2023-04-03T04:53:54;14.23;;;8.88;;
34765;SDS011;20984;43.508;1.504;2023-04-03T04:56:20;11.48;;;8.23;;
34765;SDS011;20984;43.508;1.504;2023-04-03T04:58:45;12.00;;;7.85;;
34765;SDS011;20984;43.508;1.504;2023-04-03T05:01:11;15.38;;;9.73;;
34765;SDS011;20984;43.508;1.504;2023-04-03T05:03:37;11.52;;;8.02;;
34765;SDS011;20984;43.508;1.504;2023-04-03T05:06:02;9.88;;;8.82;;
34765;SDS011;20984;43.508;1.504;2023-04-03T05:08:28;13.07;;;8.73;;
34765;SDS011;20984;43.508;1.504;2023-04-03T05:10:54;11.02;;;8.50;;
34765;SDS011;20984;43.508;1.504;2023-04-03T05:13:20;12.02;;;8.38;;
34765;SDS011;20984;43.508;1.504;2023-04-03T05:15:46;10.27;;;7.53;;
34765;SDS011;20984;43.508;1.504;2023-04-03T05:18:12;11.65;;;8.05;;
34765;SDS011;20984;43.508;1.504;2023-04-03T05:20:38;13.63;;;10.73;;
34765;SDS011;20984;43.508;1.504;2023-04-03T05:23:04;10.38;;;7.97;;
34765;SDS011;20984;43.508;1.504;2023-04-03T05:25:30;11.27;;;8.60;;
34765;SDS011;20984;43.508;1.504;2023-04-03T05:27:56;9.70;;;8.60;;
34765;SDS011;20984;43.508;1.504;2023-04-03T05:30:22;17.63;;;9.05;;
34765;SDS011;20984;43.508;1.504;2023-04-03T05:32:47;11.30;;;8.57;;
34765;SDS011;20984;43.508;1.504;2023-04-03T05:35:13;12.70;;;8.90;;
34765;SDS011;20984;43.508;1.504;2023-04-03T05:37:39;11.82;;;9.45;;
34765;SDS011;20984;43.508;1.504;2023-04-03T05:40:06;12.15;;;9.10;;
34765;SDS011;20984;43.508;1.504;2023-04-03T05:42:32;12.02;;;10.00;;
34765;SDS011;20984;43.508;1.504;2023-04-03T05:44:58;12.27;;;9.68;;
34765;SDS011;20984;43.508;1.504;2023-04-03T05:47:24;15.10;;;9.57;;
34765;SDS011;20984;43.508;1.504;2023-04-03T05:49:49;14.65;;;9.85;;
34765;SDS011;20984;43.508;1.504;2023-04-03T05:52:35;13.25;;;10.30;;
34765;SDS011;20984;43.508;1.504;2023-04-03T05:55:03;23.85;;;10.38;;
34765;SDS011;20984;43.508;1.504;2023-04-03T05:57:29;20.10;;;9.77;;
34765;SDS011;20984;43.508;1.504;2023-04-03T05:59:55;11.75;;;9.25;;
34765;SDS011;20984;43.508;1.504;2023-04-03T06:02:21;13.23;;;8.98;;
34765;SDS011;20984;43.508;1.504;2023-04-03T06:04:48;14.27;;;9.18;;
34765;SDS011;20984;43.508;1.504;2023-04-03T06:07:14;17.00;;;10.10;;
34765;SDS011;20984;43.508;1.504;2023-04-03T06:09:42;10.88;;;9.00;;
34765;SDS011;20984;43.508;1.504;2023-04-03T06:12:08;13.63;;;8.95;;
34765;SDS011;20984;43.508;1.504;2023-04-03T06:14:34;14.57;;;10.10;;
34765;SDS011;20984;43.508;1.504;2023-04-03T06:17:00;12.43;;;9.10;;
34765;SDS011;20984;43.508;1.504;2023-04-03T06:19:26;13.40;;;9.40;;
34765;SDS011;20984;43.508;1.504;2023-04-03T06:21:52;12.75;;;9.35;;
34765;SDS011;20984;43.508;1.504;2023-04-03T06:24:18;13.23;;;8.95;;
34765;SDS011;20984;43.508;1.504;2023-04-03T06:26:46;15.05;;;9.80;;
34765;SDS011;20984;43.508;1.504;2023-04-03T06:29:12;10.55;;;9.38;;
34765;SDS011;20984;43.508;1.504;2023-04-03T06:31:37;11.30;;;9.52;;
34765;SDS011;20984;43.508;1.504;2023-04-03T06:34:04;9.80;;;7.93;;
34765;SDS011;20984;43.508;1.504;2023-04-03T06:36:31;9.13;;;8.18;;
34765;SDS011;20984;43.508;1.504;2023-04-03T06:38:56;13.52;;;9.63;;
34765;SDS011;20984;43.508;1.504;2023-04-03T06:41:22;14.57;;;8.23;;
34765;SDS011;20984;43.508;1.504;2023-04-03T06:43:48;9.60;;;8.32;;
34765;SDS011;20984;43.508;1.504;2023-04-03T06:46:14;14.73;;;8.35;;
34765;SDS011;20984;43.508;1.504;2023-04-03T06:48:41;12.88;;;8.52;;
34765;SDS011;20984;43.508;1.504;2023-04-03T06:51:10;12.05;;;8.40;;
34765;SDS011;20984;43.508;1.504;2023-04-03T06:53:45;11.15;;;8.50;;
34765;SDS011;20984;43.508;1.504;2023-04-03T06:56:11;8.98;;;8.07;;
34765;SDS011;20984;43.508;1.504;2023-04-03T06:58:37;11.45;;;7.85;;
34765;SDS011;20984;43.508;1.504;2023-04-03T07:01:03;14.02;;;8.75;;
34765;SDS011;20984;43.508;1.504;2023-04-03T07:03:29;11.80;;;7.80;;
34765;SDS011;20984;43.508;1.504;2023-04-03T07:05:55;10.85;;;7.80;;
34765;SDS011;20984;43.508;1.504;2023-04-03T07:08:20;11.30;;;8.80;;
34765;SDS011;20984;43.508;1.504;2023-04-03T07:10:48;10.27;;;8.40;;
34765;SDS011;20984;43.508;1.504;2023-04-03T07:13:15;10.77;;;7.43;;
34765;SDS011;20984;43.508;1.504;2023-04-03T07:15:40;9.82;;;7.45;;
34765;SDS011;20984;43.508;1.504;2023-04-03T07:18:06;9.13;;;8.07;;
34765;SDS011;20984;43.508;1.504;2023-04-03T07:20:32;9.10;;;7.78;;
34765;SDS011;20984;43.508;1.504;2023-04-03T07:22:58;11.02;;;7.63;;
34765;SDS011;20984;43.508;1.504;2023-04-03T07:25:24;9.05;;;7.93;;
34765;SDS011;20984;43.508;1.504;2023-04-03T07:27:50;15.60;;;8.60;;
34765;SDS011;20984;43.508;1.504;2023-04-03T07:30:16;17.35;;;8.02;;
34765;SDS011;20984;43.508;1.504;2023-04-03T07:32:41;11.05;;;8.20;;
34765;SDS011;20984;43.508;1.504;2023-04-03T07:35:07;11.23;;;7.88;;
34765;SDS011;20984;43.508;1.504;2023-04-03T07:37:33;8.68;;;7.55;;
34765;SDS011;20984;43.508;1.504;2023-04-03T07:39:59;9.05;;;8.10;;
34765;SDS011;20984;43.508;1.504;2023-04-03T07:42:26;10.70;;;7.38;;
34765;SDS011;20984;43.508;1.504;2023-04-03T07:44:52;11.40;;;7.53;;
34765;SDS011;20984;43.508;1.504;2023-04-03T07:47:19;8.10;;;6.65;;
34765;SDS011;20984;43.508;1.504;2023-04-03T07:49:45;7.43;;;6.47;;
34765;SDS011;20984;43.508;1.504;2023-04-03T07:52:11;9.10;;;7.40;;
34765;SDS011;20984;43.508;1.504;2023-04-03T07:54:37;14.73;;;7.40;;
34765;SDS011;20984;43.508;1.504;2023-04-03T07:57:03;11.98;;;7.57;;
34765;SDS011;20984;43.508;1.504;2023-04-03T07:59:29;8.02;;;6.28;;
34765;SDS011;20984;43.508;1.504;2023-04-03T08:01:55;8.15;;;6.60;;
34765;SDS011;20984;43.508;1.504;2023-04-03T08:04:21;9.90;;;6.82;;
34765;SDS011;20984;43.508;1.504;2023-04-03T08:06:47;11.95;;;6.53;;
34765;SDS011;20984;43.508;1.504;2023-04-03T08:09:14;6.80;;;6.05;;
34765;SDS011;20984;43.508;1.504;2023-04-03T08:11:40;7.70;;;6.55;;
34765;SDS011;20984;43.508;1.504;2023-04-03T08:14:06;8.30;;;5.90;;
34765;SDS011;20984;43.508;1.504;2023-04-03T08:16:32;9.95;;;5.75;;
34765;SDS011;20984;43.508;1.504;2023-04-03T08:18:58;8.75;;;5.93;;
34765;SDS011;20984;43.508;1.504;2023-04-03T08:21:24;7.82;;;5.75;;
34765;SDS011;20984;43.508;1.504;2023-04-03T08:23:51;7.90;;;6.03;;
34765;SDS011;20984;43.508;1.504;2023-04-03T08:26:17;6.13;;;5.43;;
34765;SDS011;20984;43.508;1.504;2023-04-03T08:28:45;9.02;;;6.07;;
34765;SDS011;20984;43.508;1.504;2023-04-03T08:31:12;7.22;;;5.50;;
34765;SDS011;20984;43.508;1.504;2023-04-03T08:33:40;7.85;;;5.00;;
34765;SDS011;20984;43.508;1.504;2023-04-03T08:36:07;11.70;;;5.88;;
34765;SDS011;20984;43.508;1.504;2023-04-03T08:38:41;11.30;;;5.70;;
34765;SDS011;20984;43.508;1.504;2023-04-03T08:46:46;6.43;;;4.93;;
34765;SDS011;20984;43.508;1.504;2023-04-03T08:52:12;7.70;;;4.70;;
34765;SDS011;20984;43.508;1.504;2023-04-03T08:55:21;9.13;;;4.53;;
34765;SDS011;20984;43.508;1.504;2023-04-03T08:58:03;6.88;;;5.28;;
34765;SDS011;20984;43.508;1.504;2023-04-03T09:00:41;8.27;;;4.60;;
34765;SDS011;20984;43.508;1.504;2023-04-03T09:03:12;9.65;;;5.80;;
34765;SDS011;20984;43.508;1.504;2023-04-03T09:05:40;8.48;;;5.07;;
34765;SDS011;20984;43.508;1.504;2023-04-03T09:10:59;6.80;;;5.22;;
34765;SDS011;20984;43.508;1.504;2023-04-03T09:13:54;7.35;;;4.30;;
34765;SDS011;20984;43.508;1.504;2023-04-03T09:16:33;7.07;;;4.20;;
34765;SDS011;20984;43.508;1.504;2023-04-03T09:19:14;6.95;;;5.10;;
34765;SDS011;20984;43.508;1.504;2023-04-03T09:21:52;8.57;;;5.05;;
34765;SDS011;20984;43.508;1.504;2023-04-03T09:24:18;5.82;;;4.53;;
34765;SDS011;20984;43.508;1.504;2023-04-03T09:26:58;6.78;;;4.68;;
34765;SDS011;20984;43.508;1.504;2023-04-03T09:29:28;5.70;;;4.20;;
34765;SDS011;20984;43.508;1.504;2023-04-03T09:32:02;7.15;;;4.38;;
34765;SDS011;20984;43.508;1.504;2023-04-03T09:34:37;13.02;;;5.40;;
34765;SDS011;20984;43.508;1.504;2023-04-03T09:37:07;9.13;;;4.43;;
34765;SDS011;20984;43.508;1.504;2023-04-03T09:39:52;6.43;;;4.55;;
34765;SDS011;20984;43.508;1.504;2023-04-03T09:42:20;5.97;;;4.93;;
34765;SDS011;20984;43.508;1.504;2023-04-03T09:47:27;5.28;;;3.80;;
34765;SDS011;20984;43.508;1.504;2023-04-03T09:52:44;9.77;;;4.35;;
34765;SDS011;20984;43.508;1.504;2023-04-03T09:55:18;5.63;;;3.75;;
34765;SDS011;20984;43.508;1.504;2023-04-03T09:57:59;6.85;;;4.32;;
34765;SDS011;20984;43.508;1.504;2023-04-03T10:00:28;8.23;;;4.57;;
34765;SDS011;20984;43.508;1.504;2023-04-03T10:03:00;5.10;;;4.28;;
34765;SDS011;20984;43.508;1.504;2023-04-03T10:05:34;4.57;;;3.42;;
34765;SDS011;20984;43.508;1.504;2023-04-03T10:10:43;6.95;;;3.20;;
34765;SDS011;20984;43.508;1.504;2023-04-03T10:15:39;7.97;;;3.15;;
34765;SDS011;20984;43.508;1.504;2023-04-03T10:20:59;4.68;;;3.10;;
34765;SDS011;20984;43.508;1.504;2023-04-03T10:23:42;3.45;;;3.05;;
34765;SDS011;20984;43.508;1.504;2023-04-03T10:26:29;3.53;;;2.63;;
34765;SDS011;20984;43.508;1.504;2023-04-03T10:31:46;5.88;;;3.38;;
34765;SDS011;20984;43.508;1.504;2023-04-03T10:34:33;4.82;;;2.95;;
34765;SDS011;20984;43.508;1.504;2023-04-03T10:42:39;4.43;;;2.80;;
34765;SDS011;20984;43.508;1.504;2023-04-03T10:48:24;3.30;;;2.83;;
34765;SDS011;20984;43.508;1.504;2023-04-03T10:53:38;4.97;;;3.10;;
34765;SDS011;20984;43.508;1.504;2023-04-03T10:58:58;5.43;;;3.10;;
34765;SDS011;20984;43.508;1.504;2023-04-03T11:01:40;7.13;;;3.20;;
34765;SDS011;20984;43.508;1.504;2023-04-03T11:04:09;4.65;;;3.00;;
34765;SDS011;20984;43.508;1.504;2023-04-03T11:06:41;4.50;;;3.00;;
34765;SDS011;20984;43.508;1.504;2023-04-03T11:09:20;5.00;;;2.90;;
34765;SDS011;20984;43.508;1.504;2023-04-03T11:11:51;3.10;;;2.38;;
34765;SDS011;20984;43.508;1.504;2023-04-03T11:14:38;4.05;;;2.80;;
34765;SDS011;20984;43.508;1.504;2023-04-03T11:17:27;5.28;;;3.20;;
34765;SDS011;20984;43.508;1.504;2023-04-03T11:20:14;5.88;;;3.55;;
34765;SDS011;20984;43.508;1.504;2023-04-03T11:23:02;5.00;;;3.30;;
34765;SDS011;20984;43.508;1.504;2023-04-03T11:25:29;4.88;;;3.70;;
34765;SDS011;20984;43.508;1.504;2023-04-03T11:30:33;5.68;;;3.22;;
34765;SDS011;20984;43.508;1.504;2023-04-03T11:35:44;5.75;;;3.35;;
34765;SDS011;20984;43.508;1.504;2023-04-03T11:38:31;4.68;;;3.30;;
34765;SDS011;20984;43.508;1.504;2023-04-03T11:41:01;5.63;;;2.97;;
34765;SDS011;20984;43.508;1.504;2023-04-03T11:43:30;4.43;;;3.25;;
34765;SDS011;20984;43.508;1.504;2023-04-03T11:46:00;7.25;;;3.08;;
34765;SDS011;20984;43.508;1.504;2023-04-03T11:50:58;5.93;;;3.20;;
34765;SDS011;20984;43.508;1.504;2023-04-03T11:55:55;4.63;;;3.35;;
34765;SDS011;20984;43.508;1.504;2023-04-03T11:58:29;4.95;;;3.13;;
34765;SDS011;20984;43.508;1.504;2023-04-03T12:01:03;3.88;;;2.55;;
34765;SDS011;20984;43.508;1.504;2023-04-03T12:16:03;9.27;;;3.28;;
34765;SDS011;20984;43.508;1.504;2023-04-03T12:21:21;3.80;;;2.88;;
34765;SDS011;20984;43.508;1.504;2023-04-03T12:24:15;3.97;;;3.00;;
34765;SDS011;20984;43.508;1.504;2023-04-03T12:45:56;5.05;;;2.70;;
34765;SDS011;20984;43.508;1.504;2023-04-03T12:48:30;4.43;;;2.92;;
34765;SDS011;20984;43.508;1.504;2023-04-03T12:50:59;5.25;;;2.63;;
34765;SDS011;20984;43.508;1.504;2023-04-03T12:53:26;9.77;;;3.10;;
34765;SDS011;20984;43.508;1.504;2023-04-03T12:56:17;3.37;;;2.40;;
34765;SDS011;20984;43.508;1.504;2023-04-03T12:58:51;3.47;;;2.60;;
34765;SDS011;20984;43.508;1.504;2023-04-03T13:01:25;6.53;;;2.60;;
34765;SDS011;20984;43.508;1.504;2023-04-03T13:03:57;6.95;;;3.05;;
34765;SDS011;20984;43.508;1.504;2023-04-03T13:06:30;6.85;;;3.20;;
34765;SDS011;20984;43.508;1.504;2023-04-03T13:09:06;3.50;;;2.58;;
34765;SDS011;20984;43.508;1.504;2023-04-03T13:11:43;4.55;;;3.15;;
34765;SDS011;20984;43.508;1.504;2023-04-03T13:14:23;4.13;;;2.42;;
34765;SDS011;20984;43.508;1.504;2023-04-03T13:16:52;7.07;;;2.50;;
34765;SDS011;20984;43.508;1.504;2023-04-03T13:19:23;6.45;;;2.38;;
34765;SDS011;20984;43.508;1.504;2023-04-03T13:21:51;4.03;;;2.70;;
34765;SDS011;20984;43.508;1.504;2023-04-03T13:24:22;3.58;;;2.63;;
34765;SDS011;20984;43.508;1.504;2023-04-03T13:26:48;3.58;;;2.58;;
34765;SDS011;20984;43.508;1.504;2023-04-03T13:29:21;3.15;;;2.33;;
34765;SDS011;20984;43.508;1.504;2023-04-03T13:31:52;5.47;;;2.60;;
34765;SDS011;20984;43.508;1.504;2023-04-03T13:34:20;3.67;;;2.67;;
34765;SDS011;20984;43.508;1.504;2023-04-03T13:41:54;5.03;;;2.78;;
34765;SDS011;20984;43.508;1.504;2023-04-03T13:44:36;4.32;;;2.63;;
34765;SDS011;20984;43.508;1.504;2023-04-03T13:49:43;4.47;;;2.55;;
34765;SDS011;20984;43.508;1.504;2023-04-03T13:52:33;3.45;;;2.15;;
34765;SDS011;20984;43.508;1.504;2023-04-03T13:57:55;4.07;;;2.80;;
34765;SDS011;20984;43.508;1.504;2023-04-03T14:00:28;3.30;;;2.70;;
34765;SDS011;20984;43.508;1.504;2023-04-03T14:03:16;5.25;;;2.30;;
34765;SDS011;20984;43.508;1.504;2023-04-03T14:05:56;4.38;;;2.33;;
34765;SDS011;20984;43.508;1.504;2023-04-03T14:08:22;7.32;;;2.70;;
34765;SDS011;20984;43.508;1.504;2023-04-03T14:10:48;3.47;;;2.30;;
34765;SDS011;20984;43.508;1.504;2023-04-03T14:13:15;2.60;;;1.83;;
34765;SDS011;20984;43.508;1.504;2023-04-03T14:15:43;2.75;;;2.13;;
34765;SDS011;20984;43.508;1.504;2023-04-03T14:18:11;3.72;;;2.03;;
34765;SDS011;20984;43.508;1.504;2023-04-03T14:20:38;3.40;;;2.05;;
34765;SDS011;20984;43.508;1.504;2023-04-03T14:23:04;3.35;;;2.05;;
34765;SDS011;20984;43.508;1.504;2023-04-03T14:25:29;5.75;;;2.85;;
34765;SDS011;20984;43.508;1.504;2023-04-03T14:27:55;4.43;;;2.13;;
34765;SDS011;20984;43.508;1.504;2023-04-03T14:30:26;3.75;;;2.00;;
34765;SDS011;20984;43.508;1.504;2023-04-03T14:32:53;3.03;;;2.30;;
34765;SDS011;20984;43.508;1.504;2023-04-03T14:35:20;8.98;;;2.63;;
34765;SDS011;20984;43.508;1.504;2023-04-03T14:37:47;4.85;;;2.28;;
34765;SDS011;20984;43.508;1.504;2023-04-03T14:40:18;5.75;;;2.40;;
34765;SDS011;20984;43.508;1.504;2023-04-03T14:42:46;5.03;;;2.45;;
34765;SDS011;20984;43.508;1.504;2023-04-03T14:45:14;4.78;;;2.47;;
34765;SDS011;20984;43.508;1.504;2023-04-03T14:47:53;8.65;;;2.35;;
34765;SDS011;20984;43.508;1.504;2023-04-03T14:50:24;3.93;;;2.80;;
34765;SDS011;20984;43.508;1.504;2023-04-03T14:52:52;10.13;;;3.40;;
34765;SDS011;20984;43.508;1.504;2023-04-03T14:55:21;6.38;;;3.13;;
34765;SDS011;20984;43.508;1.504;2023-04-03T14:57:48;4.65;;;2.97;;
34765;SDS011;20984;43.508;1.504;2023-04-03T15:00:15;5.75;;;3.08;;
34765;SDS011;20984;43.508;1.504;2023-04-03T15:02:46;8.57;;;2.75;;
34765;SDS011;20984;43.508;1.504;2023-04-03T15:05:12;6.38;;;2.90;;
34765;SDS011;20984;43.508;1.504;2023-04-03T15:07:40;4.80;;;2.85;;
34765;SDS011;20984;43.508;1.504;2023-04-03T15:12:40;8.23;;;3.10;;
34765;SDS011;20984;43.508;1.504;2023-04-03T15:15:06;4.07;;;2.83;;
34765;SDS011;20984;43.508;1.504;2023-04-03T15:17:32;6.30;;;3.08;;
34765;SDS011;20984;43.508;1.504;2023-04-03T15:19:59;4.28;;;2.78;;
34765;SDS011;20984;43.508;1.504;2023-04-03T15:22:25;3.35;;;2.72;;
34765;SDS011;20984;43.508;1.504;2023-04-03T15:24:51;6.05;;;2.92;;
34765;SDS011;20984;43.508;1.504;2023-04-03T15:27:17;5.32;;;2.65;;
34765;SDS011;20984;43.508;1.504;2023-04-03T15:29:43;5.85;;;3.15;;
34765;SDS011;20984;43.508;1.504;2023-04-03T15:32:10;6.03;;;2.92;;
34765;SDS011;20984;43.508;1.504;2023-04-03T15:34:36;6.82;;;2.60;;
34765;SDS011;20984;43.508;1.504;2023-04-03T15:37:02;6.35;;;2.80;;
34765;SDS011;20984;43.508;1.504;2023-04-03T15:39:28;7.53;;;3.58;;
34765;SDS011;20984;43.508;1.504;2023-04-03T15:41:54;5.53;;;2.90;;
34765;SDS011;20984;43.508;1.504;2023-04-03T15:44:20;9.95;;;3.33;;
34765;SDS011;20984;43.508;1.504;2023-04-03T15:46:46;6.80;;;3.10;;
34765;SDS011;20984;43.508;1.504;2023-04-03T15:49:13;8.98;;;3.17;;
34765;SDS011;20984;43.508;1.504;2023-04-03T15:51:40;6.43;;;2.80;;
34765;SDS011;20984;43.508;1.504;2023-04-03T15:54:05;4.72;;;2.72;;
34765;SDS011;20984;43.508;1.504;2023-04-03T15:56:31;6.00;;;2.55;;
34765;SDS011;20984;43.508;1.504;2023-04-03T15:58:57;4.93;;;2.85;;
34765;SDS011;20984;43.508;1.504;2023-04-03T16:01:22;5.43;;;2.72;;
34765;SDS011;20984;43.508;1.504;2023-04-03T16:03:48;7.25;;;2.75;;
34765;SDS011;20984;43.508;1.504;2023-04-03T16:06:14;5.13;;;2.53;;
34765;SDS011;20984;43.508;1.504;2023-04-03T16:08:42;5.63;;;2.45;;
34765;SDS011;20984;43.508;1.504;2023-04-03T16:11:08;4.50;;;2.60;;
34765;SDS011;20984;43.508;1.504;2023-04-03T16:13:34;5.22;;;2.70;;
34765;SDS011;20984;43.508;1.504;2023-04-03T16:16:00;5.55;;;2.40;;
34765;SDS011;20984;43.508;1.504;2023-04-03T16:18:27;3.20;;;2.42;;
34765;SDS011;20984;43.508;1.504;2023-04-03T16:20:54;5.22;;;2.90;;
34765;SDS011;20984;43.508;1.504;2023-04-03T16:23:20;5.28;;;2.78;;
34765;SDS011;20984;43.508;1.504;2023-04-03T16:25:46;5.75;;;3.30;;
34765;SDS011;20984;43.508;1.504;2023-04-03T16:28:13;5.15;;;2.85;;
34765;SDS011;20984;43.508;1.504;2023-04-03T16:30:40;4.50;;;2.72;;
34765;SDS011;20984;43.508;1.504;2023-04-03T16:33:06;5.78;;;2.63;;
34765;SDS011;20984;43.508;1.504;2023-04-03T16:35:33;6.72;;;2.92;;
34765;SDS011;20984;43.508;1.504;2023-04-03T16:37:59;10.18;;;3.35;;